Thunder radar more information blitzortung!


Rain radar  rain snow radar



Ingen spesiell oppmerksomhet nødvendig.    Det er ingen advarsler

Nearby METAR Reports

   
ENZV - Stavanger
Oppdatert: Jun 7 2020 10:50 am
For det meste Overskyet  
For det meste Overskyet  
   Vind: Sør 5.1 m/s
Vind: Sør 5.1 m/s
Temperatur: 12°C
Duggpunkt: 9°C
Luftfuktighet: 82%
Barometer: 1000 hPa
Skyer: Mostly Cloudy
Sikt: More than 10 km
Detaljer skyer: Delvis overskyet 1600 ft,
For det meste Overskyet 2600 ft
ENZV 070850Z 19010KT 9999 SCT016 BKN026 12/09 Q1000 TEMPO BKN012
ENCN - Kristiansand
Oppdatert: Jun 7 2020 10:50 am
Delvis overskyet  
Delvis overskyet  
   Vind: Sør 5.1 m/s
Vind: Sør 5.1 m/s
Temperatur: 13°C
Duggpunkt: 7°C
Luftfuktighet: 67%
Barometer: 1001 hPa
Skyer: Partly Cloudy
Sikt: More than 10 km
Detaljer skyer: Noen skyer 2000 ft,
Delvis overskyet 3000 ft,
Delvis overskyet 4500 ft
ENCN 070850Z 19010KT 9999 FEW020 SCT030TCU SCT045 13/07 Q1001
ENBR - Bergen
Oppdatert: Jun 7 2020 10:50 am
For det meste Overskyet  
For det meste Overskyet  
   Vind: VNV 3.1 m/s
Vind: VNV 3.1 m/s
Temperatur: 11°C
Duggpunkt: 10°C
Luftfuktighet: 94%
Barometer: 999 hPa
Skyer: Mostly Cloudy
Sikt: More than 10 km
Detaljer skyer: Noen skyer 300 ft,
For det meste Overskyet 500 ft
ENBR 070850Z 30006KT 270V330 9999 FEW003 BKN005 11/10 Q0999 TEMPO 4000 DZ BR RMK WIND 1200FT 33012KT
ENGM - Oslo
Oppdatert: Jun 7 2020 10:50 am
Lokale byger, For det meste Overskyet  
Lokale byger, For det meste Overskyet  
   Vind: Sør 7.2 m/s
Vind: Sør 7.2 m/s
Temperatur: 10°C
Wind Chill: 7°C
Duggpunkt: 8°C
Luftfuktighet: 88%
Barometer: 998 hPa
Skyer: Mostly Cloudy
Sikt: More than 10 km
Detaljer skyer: Noen skyer 800 ft,
For det meste Overskyet 1000 ft
ENGM 070850Z 19014KT 9999 VCSH FEW008 BKN010 10/08 Q0998 TEMPO BKN015
ENVA - Trondheim
Oppdatert: Jun 7 2020 10:50 am
Regn, yr, For det meste Overskyet  
Regn, yr, For det meste Overskyet  
   Vind: VEST 9.3 m/s
Vind: VEST 9.3 m/s
Temperatur: 9°C
Wind Chill: 5°C
Duggpunkt: 8°C
Luftfuktighet: 94%
Barometer: 996 hPa
Skyer: Mostly Cloudy
Sikt: 9 km
Detaljer skyer: Noen skyer 900 ft,
Delvis overskyet 1400 ft,
For det meste Overskyet 2200 ft
ENVA 070850Z 27018KT 9000 RADZ FEW009 SCT014 BKN022 09/08 Q0996 TEMPO 4000 RA BR BKN008 RMK WIND 670FT 28021KT
ENTC - Tromsø
Oppdatert: Jun 7 2020 10:50 am
For det meste Overskyet  
For det meste Overskyet  
   Vind: VSV 3.1 m/s
Vind: VSV 3.1 m/s
Temperatur: 12°C
Duggpunkt: 7°C
Luftfuktighet: 72%
Barometer: 989 hPa
Skyer: Mostly Cloudy
Sikt: More than 10 km
Detaljer skyer: For det meste Overskyet 6600 ft
ENTC 070850Z 25006KT 9999 BKN066 12/07 Q0989 NOSIG RMK WIND 2600FT 18025KT

Script utviklet av  Saratoga-weather.org Tilpasset for tamplaten av  Weerstation Leuven

Du finner vår vær info også på:

European Weather Network

WeatherCloud

Weather Underground

AWEKAS

HAMweather, WeatherForYou, PWS Weather

Utrustning vi bruker:

vær-station
Davis VP2

vær-programmet
Weather Display

Davis VP2

Weather Display